createdAt,value
2017-12-05T00:00:30.357Z,0
2017-12-05T00:01:30.491Z,0
2017-12-05T00:02:31.859Z,0
2017-12-05T00:03:31.018Z,0
2017-12-05T00:04:30.920Z,0
2017-12-05T00:05:30.572Z,0
2017-12-05T00:06:32.022Z,0
2017-12-05T00:07:31.108Z,0
2017-12-05T00:08:58.299Z,0
2017-12-05T00:09:59.730Z,0
2017-12-05T00:11:00.064Z,0
2017-12-05T00:11:58.563Z,0
2017-12-05T00:12:58.171Z,0
2017-12-05T00:13:58.111Z,0
2017-12-05T00:14:57.808Z,0
2017-12-05T00:15:57.879Z,0
2017-12-05T00:16:58.548Z,0
2017-12-05T00:17:58.875Z,0
2017-12-05T00:18:58.172Z,0
2017-12-05T00:19:57.968Z,0
2017-12-05T00:20:57.965Z,0
2017-12-05T00:21:58.030Z,0
2017-12-05T00:22:58.834Z,0
2017-12-05T00:23:58.656Z,0
2017-12-05T00:24:58.083Z,0
2017-12-05T00:25:58.190Z,0
2017-12-05T00:27:00.910Z,0
2017-12-05T00:27:58.460Z,0
2017-12-05T00:28:58.260Z,0
2017-12-05T00:29:59.522Z,0
2017-12-05T00:30:58.750Z,0
2017-12-05T00:31:58.347Z,0
2017-12-05T00:32:57.869Z,0
2017-12-05T00:33:59.156Z,0
2017-12-05T00:34:58.597Z,0
2017-12-05T00:35:58.975Z,0
2017-12-05T00:36:59.158Z,0
2017-12-05T00:38:25.492Z,0
2017-12-05T00:39:25.688Z,0
2017-12-05T00:40:26.143Z,0
2017-12-05T00:41:25.555Z,0
2017-12-05T00:42:25.891Z,0
2017-12-05T00:43:25.316Z,0
2017-12-05T00:44:25.631Z,0
2017-12-05T00:45:25.818Z,0
2017-12-05T00:46:25.162Z,0
2017-12-05T00:47:26.219Z,0
2017-12-05T00:48:26.432Z,0
2017-12-05T00:49:24.937Z,0
2017-12-05T00:50:26.220Z,0
2017-12-05T00:51:25.539Z,0
2017-12-05T00:52:25.684Z,0
2017-12-05T00:53:25.074Z,0
2017-12-05T00:54:26.384Z,0
2017-12-05T00:55:25.674Z,0
2017-12-05T00:56:25.630Z,0
2017-12-05T00:57:25.020Z,0
2017-12-05T00:58:25.385Z,0
2017-12-05T00:59:24.791Z,0
2017-12-05T01:00:25.358Z,0
2017-12-05T01:01:51.659Z,0
2017-12-05T01:02:51.037Z,0
2017-12-05T01:03:52.263Z,0
2017-12-05T01:04:52.129Z,0
2017-12-05T01:06:18.348Z,0
2017-12-05T01:07:17.686Z,0
2017-12-05T01:08:18.149Z,0
2017-12-05T01:09:19.300Z,0
2017-12-05T01:10:18.533Z,0
2017-12-05T01:11:17.913Z,0
2017-12-05T01:12:44.381Z,0
2017-12-05T01:13:45.633Z,0
2017-12-05T01:14:45.752Z,0
2017-12-05T01:15:45.954Z,0
2017-12-05T01:16:44.284Z,0
2017-12-05T01:17:45.840Z,0
2017-12-05T01:18:46.037Z,0
2017-12-05T01:19:45.260Z,0
2017-12-05T01:20:44.563Z,0
2017-12-05T01:21:45.893Z,0
2017-12-05T01:22:44.331Z,0
2017-12-05T01:23:45.429Z,0
2017-12-05T01:24:45.666Z,0
2017-12-05T01:25:45.066Z,0
2017-12-05T01:27:13.351Z,0
2017-12-05T01:29:06.991Z,0
2017-12-05T01:30:07.393Z,0
2017-12-05T01:31:07.721Z,0
2017-12-05T01:32:07.983Z,0
2017-12-05T01:33:08.150Z,0
2017-12-05T01:34:07.526Z,0
2017-12-05T01:35:07.908Z,0
2017-12-05T01:36:07.234Z,0
2017-12-05T01:37:08.540Z,0
2017-12-05T01:38:07.929Z,0
2017-12-05T01:39:07.398Z,0
2017-12-05T01:40:33.886Z,0
2017-12-05T01:41:34.201Z,0
2017-12-05T01:42:35.509Z,0
2017-12-05T01:43:35.338Z,0
2017-12-05T01:44:35.534Z,0
2017-12-05T01:45:35.682Z,0
2017-12-05T01:46:34.985Z,0
2017-12-05T01:47:35.325Z,0
2017-12-05T01:48:35.511Z,0
2017-12-05T01:49:34.747Z,0
2017-12-05T01:50:34.886Z,0
2017-12-05T01:51:35.238Z,0
2017-12-05T01:52:34.654Z,0
2017-12-05T01:53:34.811Z,0
2017-12-05T01:54:35.001Z,0
2017-12-05T01:55:35.097Z,0
2017-12-05T01:56:35.156Z,0
2017-12-05T01:57:35.329Z,0
2017-12-05T01:58:35.483Z,0
2017-12-05T01:59:35.635Z,0
2017-12-05T02:00:33.937Z,0
2017-12-05T02:01:35.095Z,0
2017-12-05T02:02:34.539Z,0
2017-12-05T02:04:00.073Z,0
2017-12-05T02:05:00.525Z,0
2017-12-05T02:06:00.107Z,0
2017-12-05T02:07:01.265Z,0
2017-12-05T02:08:00.594Z,0
2017-12-05T02:09:02.007Z,0
2017-12-05T02:10:01.282Z,0
2017-12-05T02:11:01.573Z,0
2017-12-05T02:12:00.943Z,0
2017-12-05T02:13:01.088Z,0
2017-12-05T02:14:00.445Z,0
2017-12-05T02:15:00.900Z,0
2017-12-05T02:16:01.157Z,0
2017-12-05T02:17:00.434Z,0
2017-12-05T02:18:01.646Z,0
2017-12-05T02:19:01.819Z,0
2017-12-05T02:20:00.174Z,0
2017-12-05T02:21:01.446Z,0
2017-12-05T02:22:00.787Z,0
2017-12-05T02:23:00.906Z,0
2017-12-05T02:24:00.325Z,0
2017-12-05T02:25:00.655Z,0
2017-12-05T02:26:01.843Z,0
2017-12-05T02:27:00.128Z,0
2017-12-05T02:28:00.545Z,0
2017-12-05T02:29:00.923Z,0
2017-12-05T02:30:00.250Z,0
2017-12-05T02:31:01.435Z,0
2017-12-05T02:32:00.756Z,0
2017-12-05T02:33:00.943Z,0
2017-12-05T02:34:00.514Z,0
2017-12-05T02:35:00.809Z,0
2017-12-05T02:36:00.948Z,0
2017-12-05T02:37:01.055Z,0
2017-12-05T02:38:01.180Z,0
2017-12-05T02:39:01.302Z,0
2017-12-05T02:40:01.427Z,0
2017-12-05T02:41:01.287Z,0
2017-12-05T02:42:01.161Z,0
2017-12-05T02:43:01.719Z,0
2017-12-05T02:44:01.856Z,0
2017-12-05T02:45:00.943Z,0
2017-12-05T02:46:00.325Z,0
2017-12-05T02:47:02.288Z,0
2017-12-05T02:48:00.647Z,0
2017-12-05T02:49:01.057Z,0
2017-12-05T02:50:00.390Z,0
2017-12-05T02:51:00.754Z,0
2017-12-05T02:52:00.083Z,0
2017-12-05T02:53:01.325Z,0
2017-12-05T02:54:01.563Z,0
2017-12-05T02:55:01.701Z,0
2017-12-05T02:56:01.949Z,0
2017-12-05T02:57:01.096Z,0
2017-12-05T02:58:00.436Z,0
2017-12-05T02:59:00.869Z,0
2017-12-05T03:00:00.203Z,0
2017-12-05T03:01:00.592Z,0
2017-12-05T03:02:01.921Z,0
2017-12-05T03:03:00.843Z,0
2017-12-05T03:04:00.140Z,0
2017-12-05T03:05:00.500Z,0
2017-12-05T03:06:00.922Z,0
2017-12-05T03:07:01.233Z,0
2017-12-05T03:08:00.574Z,0
2017-12-05T03:09:01.648Z,0
2017-12-05T03:10:01.814Z,0
2017-12-05T03:11:01.082Z,0
2017-12-05T03:12:01.202Z,0
2017-12-05T03:13:01.400Z,0
2017-12-05T03:14:27.013Z,0
2017-12-05T03:15:27.473Z,0
2017-12-05T03:16:27.803Z,0
2017-12-05T03:17:27.103Z,0
2017-12-05T03:18:27.452Z,0
2017-12-05T03:19:27.761Z,0
2017-12-05T03:20:28.468Z,0
2017-12-05T03:21:28.767Z,0
2017-12-05T03:22:27.926Z,0
2017-12-05T03:23:27.367Z,0
2017-12-05T03:24:28.606Z,0
2017-12-05T03:25:28.783Z,0
2017-12-05T03:26:27.890Z,0
2017-12-05T03:27:28.064Z,0
2017-12-05T03:28:28.394Z,0
2017-12-05T03:29:28.577Z,0
2017-12-05T03:30:28.083Z,0
2017-12-05T03:31:27.414Z,0
2017-12-05T03:32:27.812Z,0
2017-12-05T03:33:27.224Z,0
2017-12-05T03:34:27.607Z,0
2017-12-05T03:35:27.027Z,0
2017-12-05T03:36:28.156Z,0
2017-12-05T03:37:27.090Z,0
2017-12-05T03:38:28.077Z,0
2017-12-05T03:39:27.359Z,0
2017-12-05T03:40:28.542Z,0
2017-12-05T03:41:28.753Z,0
2017-12-05T03:42:28.478Z,0
2017-12-05T03:43:28.091Z,0
2017-12-05T03:44:28.211Z,0
2017-12-05T03:45:28.449Z,0
2017-12-05T03:46:28.644Z,0
2017-12-05T03:47:27.932Z,0
2017-12-05T03:48:28.124Z,0
2017-12-05T03:49:27.566Z,0
2017-12-05T03:50:28.801Z,0
2017-12-05T03:51:28.040Z,0
2017-12-05T03:52:27.414Z,0
2017-12-05T03:53:28.589Z,0
2017-12-05T03:54:27.300Z,0
2017-12-05T03:55:27.178Z,0
2017-12-05T03:56:28.565Z,0
2017-12-05T03:57:28.807Z,0
2017-12-05T03:58:27.988Z,0
2017-12-05T03:59:27.307Z,0
2017-12-05T04:00:27.788Z,0
2017-12-05T04:01:28.047Z,0
2017-12-05T04:02:27.415Z,0
2017-12-05T04:03:28.609Z,0
2017-12-05T04:04:27.983Z,0
2017-12-05T04:05:27.340Z,0
2017-12-05T04:06:27.674Z,0
2017-12-05T04:07:55.834Z,0
2017-12-05T04:08:56.156Z,0
2017-12-05T04:09:56.195Z,0
2017-12-05T04:10:56.415Z,0
2017-12-05T04:11:56.644Z,0
2017-12-05T04:12:56.310Z,0
2017-12-05T04:13:55.778Z,0
2017-12-05T04:14:55.513Z,0
2017-12-05T04:15:55.988Z,0
2017-12-05T04:16:56.715Z,0
2017-12-05T04:17:55.435Z,0
2017-12-05T04:18:56.387Z,0
2017-12-05T04:19:55.799Z,0
2017-12-05T04:20:55.435Z,0
2017-12-05T04:21:56.846Z,0
2017-12-05T04:22:56.159Z,0
2017-12-05T04:23:55.817Z,0
2017-12-05T04:24:55.432Z,0
2017-12-05T04:25:56.799Z,0
2017-12-05T04:26:56.088Z,0
2017-12-05T04:27:56.595Z,0
2017-12-05T04:28:56.928Z,0
2017-12-05T04:29:55.825Z,0
2017-12-05T04:30:56.264Z,0
2017-12-05T04:31:56.642Z,0
2017-12-05T04:33:26.858Z,0
2017-12-05T04:34:27.425Z,0
2017-12-05T04:35:27.544Z,0
2017-12-05T04:36:26.803Z,0
2017-12-05T04:37:27.393Z,0
2017-12-05T04:38:26.216Z,0
2017-12-05T04:39:26.665Z,0
2017-12-05T04:40:55.318Z,0
2017-12-05T04:41:55.671Z,0
2017-12-05T04:42:56.106Z,0
2017-12-05T04:44:21.506Z,0
2017-12-05T04:45:22.186Z,0
2017-12-05T04:46:21.735Z,0
2017-12-05T04:47:22.629Z,0
2017-12-05T04:48:23.001Z,0
2017-12-05T04:49:22.517Z,0
2017-12-05T04:50:22.231Z,0
2017-12-05T04:51:22.769Z,0
2017-12-05T04:52:22.232Z,0
2017-12-05T04:53:22.127Z,0
2017-12-05T04:54:21.718Z,0
2017-12-05T04:55:22.369Z,0
2017-12-05T04:56:50.447Z,0
2017-12-05T04:57:50.787Z,0
2017-12-05T04:58:50.656Z,0
2017-12-05T04:59:49.927Z,0
2017-12-05T05:00:49.845Z,0
2017-12-05T05:01:51.186Z,0
2017-12-05T05:02:50.886Z,0
2017-12-05T05:03:50.736Z,0
2017-12-05T05:04:50.122Z,0
2017-12-05T05:05:50.658Z,0
2017-12-05T05:06:50.377Z,0
2017-12-05T05:07:49.882Z,0
2017-12-05T05:08:51.377Z,0
2017-12-05T05:09:51.045Z,0
2017-12-05T05:10:50.521Z,0
2017-12-05T05:11:50.023Z,0
2017-12-05T05:12:51.857Z,0
2017-12-05T05:13:51.241Z,0
2017-12-05T05:14:51.164Z,0
2017-12-05T05:15:50.227Z,0
2017-12-05T05:16:51.152Z,0
2017-12-05T05:17:51.169Z,0
2017-12-05T05:18:50.795Z,0
2017-12-05T05:19:50.902Z,0
2017-12-05T05:20:51.463Z,0
2017-12-05T05:21:51.396Z,0
2017-12-05T05:22:50.994Z,0
2017-12-05T05:23:50.674Z,0
2017-12-05T05:24:50.208Z,0
2017-12-05T05:25:51.226Z,0
2017-12-05T05:26:50.610Z,0
2017-12-05T05:27:50.194Z,0
2017-12-05T05:28:51.312Z,0
2017-12-05T05:29:50.205Z,0
2017-12-05T05:30:50.491Z,0
2017-12-05T05:31:50.882Z,0
2017-12-05T05:32:51.516Z,0
2017-12-05T05:33:50.770Z,0
2017-12-05T05:34:51.084Z,0
2017-12-05T05:35:55.731Z,0
2017-12-05T05:37:34.121Z,0
2017-12-05T05:38:34.958Z,0
2017-12-05T05:39:35.074Z,0
2017-12-05T05:40:34.737Z,0
2017-12-05T05:41:34.540Z,0
2017-12-05T05:42:34.365Z,0
2017-12-05T05:43:34.602Z,0
2017-12-05T05:44:34.257Z,0
2017-12-05T05:45:34.559Z,0
2017-12-05T05:46:34.371Z,0
2017-12-05T05:47:34.161Z,0
2017-12-05T05:48:34.200Z,0
2017-12-05T05:49:35.333Z,0
2017-12-05T05:50:33.919Z,0
2017-12-05T05:51:34.589Z,0
2017-12-05T05:52:34.176Z,0
2017-12-05T05:53:34.872Z,0
2017-12-05T05:54:34.649Z,0
2017-12-05T05:55:34.291Z,0
2017-12-05T05:56:34.017Z,0
2017-12-05T05:57:34.772Z,0
2017-12-05T05:58:34.281Z,0
2017-12-05T05:59:34.022Z,0
2017-12-05T06:00:34.021Z,0
2017-12-05T06:01:34.766Z,0
2017-12-05T06:02:34.523Z,0
2017-12-05T06:03:34.230Z,0
2017-12-05T06:04:33.927Z,0
2017-12-05T06:05:34.644Z,0
2017-12-05T06:06:34.232Z,0
2017-12-05T06:08:26.883Z,0
2017-12-05T06:09:27.486Z,0
2017-12-05T06:10:26.923Z,0
2017-12-05T06:11:26.931Z,0
2017-12-05T06:12:27.709Z,0
2017-12-05T06:13:27.773Z,0
2017-12-05T06:14:27.510Z,0
2017-12-05T06:15:27.416Z,0
2017-12-05T06:16:27.174Z,0
2017-12-05T06:17:28.458Z,0
2017-12-05T06:18:26.785Z,0
2017-12-05T06:19:27.246Z,0
2017-12-05T06:20:27.756Z,0
2017-12-05T06:21:27.180Z,0
2017-12-05T06:22:27.585Z,0
2017-12-05T06:23:27.055Z,0
2017-12-05T06:24:27.679Z,0
2017-12-05T06:25:27.212Z,0
2017-12-05T06:26:27.892Z,0
2017-12-05T06:27:26.827Z,0
2017-12-05T06:28:27.442Z,0
2017-12-05T06:29:26.988Z,0
2017-12-05T06:30:27.671Z,0
2017-12-05T06:31:27.278Z,0
2017-12-05T06:32:27.080Z,0
2017-12-05T06:33:27.536Z,0
2017-12-05T06:34:27.200Z,0
2017-12-05T06:35:54.004Z,0
2017-12-05T06:36:54.866Z,0
2017-12-05T06:37:54.904Z,0
2017-12-05T06:38:54.362Z,0
2017-12-05T06:39:55.166Z,0
2017-12-05T06:40:54.843Z,0
2017-12-05T06:41:54.773Z,0
2017-12-05T06:42:55.050Z,0
2017-12-05T06:43:55.312Z,0
2017-12-05T06:44:54.926Z,0
2017-12-05T06:45:54.593Z,0
2017-12-05T06:46:54.863Z,0
2017-12-05T06:47:54.896Z,0
2017-12-05T06:48:54.448Z,0
2017-12-05T06:49:55.006Z,0
2017-12-05T06:50:54.994Z,0
2017-12-05T06:51:55.072Z,0
2017-12-05T06:53:22.430Z,0
2017-12-05T06:54:23.080Z,0
2017-12-05T06:55:21.762Z,0
2017-12-05T06:56:22.726Z,0
2017-12-05T06:57:22.526Z,0
2017-12-05T06:58:22.696Z,0
2017-12-05T06:59:22.309Z,0
2017-12-05T07:00:22.236Z,0
2017-12-05T07:01:21.821Z,0
2017-12-05T07:02:22.432Z,0
2017-12-05T07:03:21.887Z,0
2017-12-05T07:04:22.373Z,0
2017-12-05T07:05:22.368Z,0
2017-12-05T07:06:23.204Z,0
2017-12-05T07:07:21.701Z,0
2017-12-05T07:08:22.671Z,0
2017-12-05T07:09:22.479Z,0
2017-12-05T07:10:23.060Z,0
2017-12-05T07:11:21.550Z,0
2017-12-05T07:12:22.053Z,0
2017-12-05T07:13:21.513Z,0
2017-12-05T07:14:21.972Z,0
2017-12-05T07:15:22.487Z,0
2017-12-05T07:16:22.088Z,0
2017-12-05T07:17:21.618Z,1
2017-12-05T07:18:22.125Z,1
2017-12-05T07:19:21.578Z,1
2017-12-05T07:20:22.139Z,1
2017-12-05T07:21:21.666Z,1
2017-12-05T07:22:22.780Z,1
2017-12-05T07:23:22.277Z,2
2017-12-05T07:24:21.808Z,2
2017-12-05T07:25:21.489Z,2
2017-12-05T07:26:21.923Z,2
2017-12-05T07:27:22.352Z,2
2017-12-05T07:28:21.893Z,1
2017-12-05T07:29:22.421Z,1
2017-12-05T07:30:21.964Z,2
2017-12-05T07:31:22.409Z,2
2017-12-05T07:32:22.058Z,3
2017-12-05T07:33:47.717Z,3
2017-12-05T07:35:14.453Z,4
2017-12-05T07:36:15.082Z,4
2017-12-05T07:37:15.051Z,4
2017-12-05T07:38:14.607Z,4
2017-12-05T07:39:15.113Z,4
2017-12-05T07:40:40.732Z,3
2017-12-05T07:41:41.345Z,4
2017-12-05T07:42:40.837Z,5
2017-12-05T07:43:41.333Z,5
2017-12-05T07:44:40.851Z,6
2017-12-05T07:45:41.360Z,6
2017-12-05T07:46:41.019Z,5
2017-12-05T07:47:41.560Z,6
2017-12-05T07:49:07.264Z,6
2017-12-05T07:50:35.842Z,7
2017-12-05T07:52:03.950Z,9
2017-12-05T07:53:04.525Z,10
2017-12-05T07:54:04.013Z,8
2017-12-05T07:55:04.532Z,7
2017-12-05T07:56:04.045Z,8
2017-12-05T07:57:04.655Z,9
2017-12-05T07:58:04.305Z,10
2017-12-05T07:59:03.966Z,10
2017-12-05T08:00:04.524Z,11
2017-12-05T08:01:04.227Z,14
2017-12-05T08:02:04.807Z,9
2017-12-05T08:03:04.359Z,9
2017-12-05T08:04:03.906Z,8
2017-12-05T08:05:04.508Z,9
2017-12-05T08:06:04.208Z,8
2017-12-05T08:07:04.798Z,7
2017-12-05T08:08:04.395Z,10
2017-12-05T08:09:04.181Z,9
2017-12-05T08:10:04.013Z,11
2017-12-05T08:11:58.112Z,11
2017-12-05T08:12:58.770Z,13
2017-12-05T08:13:58.441Z,14
2017-12-05T08:14:58.688Z,15
2017-12-05T08:15:58.542Z,16
2017-12-05T08:16:58.232Z,15
2017-12-05T08:17:58.873Z,11
2017-12-05T08:18:58.438Z,13
2017-12-05T08:19:58.926Z,20
2017-12-05T08:20:58.500Z,24
2017-12-05T08:21:59.100Z,29
2017-12-05T08:22:58.751Z,30
2017-12-05T08:23:58.272Z,25
2017-12-05T08:24:58.849Z,20
2017-12-05T08:25:58.446Z,15
2017-12-05T08:26:58.982Z,13
2017-12-05T08:27:58.585Z,11
2017-12-05T08:28:58.157Z,16
2017-12-05T08:29:58.203Z,22
2017-12-05T08:30:58.786Z,22
2017-12-05T08:31:58.316Z,24
2017-12-05T08:32:58.896Z,23
2017-12-05T08:33:58.696Z,21
2017-12-05T08:34:58.210Z,21
2017-12-05T08:35:58.770Z,19
2017-12-05T08:37:25.498Z,14
2017-12-05T08:38:26.590Z,11
2017-12-05T08:39:26.152Z,12
2017-12-05T08:40:25.688Z,15
2017-12-05T08:41:26.170Z,18
2017-12-05T08:42:25.700Z,19
2017-12-05T08:43:25.512Z,17
2017-12-05T08:44:26.383Z,14
2017-12-05T08:45:25.924Z,13
2017-12-05T08:46:26.545Z,16
2017-12-05T08:47:26.152Z,17
2017-12-05T08:48:25.794Z,15
2017-12-05T08:49:26.476Z,14
2017-12-05T08:50:26.148Z,11
2017-12-05T08:51:52.174Z,9
2017-12-05T08:52:52.831Z,9
2017-12-05T08:53:52.483Z,10
2017-12-05T08:54:53.050Z,12
2017-12-05T08:56:18.763Z,15
2017-12-05T08:57:19.279Z,17
2017-12-05T08:58:19.171Z,21
2017-12-05T08:59:19.700Z,24
2017-12-05T09:00:19.230Z,26
2017-12-05T09:01:45.979Z,25
2017-12-05T09:02:46.508Z,28
2017-12-05T09:03:45.991Z,31
2017-12-05T09:04:46.699Z,36
2017-12-05T09:05:46.277Z,38
2017-12-05T09:06:46.759Z,41
2017-12-05T09:07:46.292Z,43
2017-12-05T09:08:46.808Z,48
2017-12-05T09:09:46.296Z,51
2017-12-05T09:10:46.819Z,48
2017-12-05T09:11:46.618Z,41
2017-12-05T09:12:46.510Z,39
2017-12-05T09:13:46.238Z,42
2017-12-05T09:14:46.739Z,44
2017-12-05T09:15:46.313Z,48
2017-12-05T09:16:46.829Z,49
2017-12-05T09:17:46.366Z,52
2017-12-05T09:18:46.952Z,52
2017-12-05T09:19:46.482Z,53
2017-12-05T09:20:46.173Z,52
2017-12-05T09:21:46.951Z,54
2017-12-05T09:22:46.568Z,50
2017-12-05T09:23:46.146Z,52
2017-12-05T09:24:46.791Z,53
2017-12-05T09:26:12.679Z,54
2017-12-05T09:27:13.336Z,54
2017-12-05T09:28:12.892Z,54
2017-12-05T09:29:13.329Z,51
2017-12-05T09:30:13.265Z,51
2017-12-05T09:31:12.821Z,49
2017-12-05T09:32:13.346Z,48
2017-12-05T09:33:12.860Z,49
2017-12-05T09:34:13.354Z,53
2017-12-05T09:35:12.838Z,53
2017-12-05T09:36:13.474Z,52
2017-12-05T09:37:13.276Z,50
2017-12-05T09:38:12.817Z,48
2017-12-05T09:39:13.329Z,44
2017-12-05T09:40:12.949Z,42
2017-12-05T09:41:13.481Z,42
2017-12-05T09:42:13.008Z,41
2017-12-05T09:43:13.572Z,41
2017-12-05T09:44:13.108Z,41
2017-12-05T09:45:13.669Z,44
2017-12-05T09:46:13.178Z,45
2017-12-05T09:47:12.777Z,46
2017-12-05T09:48:13.460Z,48
2017-12-05T09:49:12.687Z,51
2017-12-05T09:50:39.456Z,52
2017-12-05T09:51:40.033Z,45
2017-12-05T09:52:41.444Z,55
2017-12-05T09:53:40.424Z,56
2017-12-05T09:54:39.903Z,51
2017-12-05T09:55:39.571Z,53
2017-12-05T09:56:40.064Z,54
2017-12-05T09:57:39.685Z,56
2017-12-05T09:58:40.204Z,57
2017-12-05T09:59:39.523Z,56
2017-12-05T10:00:40.135Z,50
2017-12-05T10:01:39.918Z,47
2017-12-05T10:02:40.677Z,44
2017-12-05T10:03:40.211Z,39
2017-12-05T10:04:39.757Z,40
2017-12-05T10:05:40.261Z,45
2017-12-05T10:06:39.688Z,46
2017-12-05T10:07:40.503Z,43
2017-12-05T10:08:40.470Z,42
2017-12-05T10:09:39.700Z,37
2017-12-05T10:10:40.232Z,39
2017-12-05T10:11:39.932Z,43
2017-12-05T10:12:40.464Z,49
2017-12-05T10:13:40.372Z,55
2017-12-05T10:14:39.851Z,54
2017-12-05T10:15:40.482Z,50
2017-12-05T10:16:40.248Z,48
2017-12-05T10:17:39.850Z,46
2017-12-05T10:18:42.263Z,45
2017-12-05T10:19:40.040Z,45
2017-12-05T10:20:39.596Z,46
2017-12-05T10:21:40.135Z,49
2017-12-05T10:22:40.385Z,50
2017-12-05T10:23:40.037Z,49
2017-12-05T10:24:39.870Z,45
2017-12-05T10:25:39.613Z,43
2017-12-05T10:26:40.061Z,45
2017-12-05T10:27:39.828Z,45
2017-12-05T10:28:41.019Z,46
2017-12-05T10:29:39.548Z,46
2017-12-05T10:30:40.343Z,47
2017-12-05T10:31:40.413Z,48
2017-12-05T10:32:39.643Z,49
2017-12-05T10:33:40.082Z,48
2017-12-05T10:34:39.548Z,47
2017-12-05T10:35:40.030Z,45
2017-12-05T10:36:40.171Z,45
2017-12-05T10:37:39.743Z,45
2017-12-05T10:38:40.335Z,45
2017-12-05T10:39:39.936Z,44
2017-12-05T10:40:40.439Z,43
2017-12-05T10:41:40.040Z,43
2017-12-05T10:42:39.596Z,43
2017-12-05T10:43:40.131Z,44
2017-12-05T10:44:39.857Z,44
2017-12-05T10:45:40.488Z,44
2017-12-05T10:46:40.325Z,44
2017-12-05T10:47:40.240Z,44
2017-12-05T10:48:40.071Z,44
2017-12-05T10:49:40.206Z,44
2017-12-05T10:50:39.832Z,44
2017-12-05T10:51:41.361Z,44
2017-12-05T10:52:39.837Z,44
2017-12-05T10:53:40.474Z,44
2017-12-05T10:54:40.034Z,44
2017-12-05T10:56:05.872Z,46
2017-12-05T10:57:33.652Z,47
2017-12-05T10:58:33.243Z,49
2017-12-05T10:59:33.247Z,51
2017-12-05T11:00:32.947Z,51
2017-12-05T11:01:32.858Z,48
2017-12-05T11:02:33.403Z,45
2017-12-05T11:03:33.023Z,44
2017-12-05T11:04:33.606Z,43
2017-12-05T11:05:33.219Z,42
2017-12-05T11:06:33.700Z,42
2017-12-05T11:07:33.252Z,42
2017-12-05T11:08:32.892Z,41
2017-12-05T11:09:33.507Z,42
2017-12-05T11:10:33.076Z,45
2017-12-05T11:11:33.563Z,47
2017-12-05T11:12:59.584Z,50
2017-12-05T11:14:00.134Z,49
2017-12-05T11:14:59.771Z,48
2017-12-05T11:16:00.312Z,49
2017-12-05T11:16:59.887Z,51
2017-12-05T11:18:00.396Z,53
2017-12-05T11:18:59.904Z,55
2017-12-05T11:20:00.459Z,56
2017-12-05T11:21:00.072Z,54
2017-12-05T11:21:59.675Z,49
2017-12-05T11:23:00.180Z,46
2017-12-05T11:23:59.705Z,45
2017-12-05T11:25:00.532Z,42
2017-12-05T11:26:00.409Z,40
2017-12-05T11:26:59.971Z,38
2017-12-05T11:28:00.583Z,35
2017-12-05T11:29:00.171Z,33
2017-12-05T11:30:26.155Z,33
2017-12-05T11:31:52.954Z,36
2017-12-05T11:32:53.566Z,35
2017-12-05T11:34:20.476Z,30
2017-12-05T11:35:20.691Z,29
2017-12-05T11:36:21.206Z,28
2017-12-05T11:37:20.897Z,27
2017-12-05T11:38:46.943Z,25
2017-12-05T11:39:46.985Z,24
2017-12-05T11:40:47.869Z,24
2017-12-05T11:41:47.414Z,24
2017-12-05T11:42:46.930Z,26
2017-12-05T11:43:47.519Z,30
2017-12-05T11:44:47.376Z,38
2017-12-05T11:45:46.920Z,42
2017-12-05T11:46:47.845Z,42
2017-12-05T11:47:47.683Z,43
2017-12-05T11:48:47.264Z,44
2017-12-05T11:49:47.773Z,45
2017-12-05T11:50:47.291Z,45
2017-12-05T11:51:47.810Z,44
2017-12-05T11:52:47.545Z,44
2017-12-05T11:54:13.347Z,45
2017-12-05T11:55:14.053Z,43
2017-12-05T11:56:41.522Z,35
2017-12-05T11:57:41.670Z,30
2017-12-05T11:58:43.185Z,28
2017-12-05T11:59:41.809Z,28
2017-12-05T12:00:41.858Z,27
2017-12-05T12:01:42.105Z,25
2017-12-05T12:02:41.655Z,25
2017-12-05T12:03:42.260Z,29
2017-12-05T12:04:41.746Z,34
2017-12-05T12:05:42.275Z,35
2017-12-05T12:06:42.068Z,35
2017-12-05T12:08:07.927Z,33
2017-12-05T12:09:08.482Z,32
2017-12-05T12:10:07.990Z,31
2017-12-05T12:11:08.426Z,31
2017-12-05T12:12:08.212Z,33
2017-12-05T12:13:08.254Z,36
2017-12-05T12:14:08.675Z,37
2017-12-05T12:15:08.202Z,36
2017-12-05T12:16:08.746Z,39
2017-12-05T12:17:08.600Z,40
2017-12-05T12:18:08.420Z,42
2017-12-05T12:19:08.202Z,43
2017-12-05T12:20:08.823Z,42
2017-12-05T12:21:09.397Z,42
2017-12-05T12:22:08.475Z,42
2017-12-05T12:23:08.380Z,42
2017-12-05T12:24:08.381Z,43
2017-12-05T12:25:08.408Z,47
2017-12-05T12:26:08.968Z,48
2017-12-05T12:27:08.506Z,48
2017-12-05T12:28:08.084Z,48
2017-12-05T12:29:08.628Z,52
2017-12-05T12:30:08.350Z,56
2017-12-05T12:31:08.937Z,57
2017-12-05T12:32:08.627Z,57
2017-12-05T12:33:08.273Z,58
2017-12-05T12:34:35.142Z,60
2017-12-05T12:35:35.686Z,59
2017-12-05T12:36:35.178Z,56
2017-12-05T12:38:02.330Z,58
2017-12-05T12:39:02.840Z,59
2017-12-05T12:40:02.463Z,56
2017-12-05T12:41:02.935Z,54
2017-12-05T12:42:02.494Z,54
2017-12-05T12:43:03.640Z,53
2017-12-05T12:44:03.160Z,52
2017-12-05T12:45:02.697Z,51
2017-12-05T12:46:02.388Z,50
2017-12-05T12:47:03.150Z,49
2017-12-05T12:48:02.693Z,49
2017-12-05T12:49:02.390Z,46
2017-12-05T12:50:02.906Z,42
2017-12-05T12:51:02.827Z,39
2017-12-05T12:52:02.466Z,36
2017-12-05T12:53:02.658Z,34
2017-12-05T12:54:03.366Z,34
2017-12-05T12:55:03.057Z,32
2017-12-05T12:56:02.625Z,31
2017-12-05T12:57:03.164Z,29
2017-12-05T12:58:02.787Z,27
2017-12-05T12:59:02.510Z,27
2017-12-05T13:00:03.041Z,28
2017-12-05T13:01:02.559Z,27
2017-12-05T13:02:03.161Z,25
2017-12-05T13:03:02.770Z,25
2017-12-05T13:04:02.407Z,24
2017-12-05T13:05:03.077Z,24
2017-12-05T13:06:02.921Z,24
2017-12-05T13:07:02.438Z,24
2017-12-05T13:08:02.919Z,24
2017-12-05T13:09:02.517Z,24
2017-12-05T13:10:03.026Z,25
2017-12-05T13:11:02.592Z,24
2017-12-05T13:12:29.476Z,23
2017-12-05T13:13:30.049Z,23
2017-12-05T13:14:30.239Z,23
2017-12-05T13:15:29.731Z,24
2017-12-05T13:16:30.950Z,24
2017-12-05T13:17:30.513Z,24
2017-12-05T13:18:30.075Z,22
2017-12-05T13:19:29.826Z,21
2017-12-05T13:20:30.330Z,24
2017-12-05T13:21:29.934Z,26
2017-12-05T13:22:30.501Z,26
2017-12-05T13:23:30.172Z,26
2017-12-05T13:24:29.680Z,27
2017-12-05T13:25:30.212Z,27
2017-12-05T13:26:29.842Z,25
2017-12-05T13:27:30.338Z,24
2017-12-05T13:28:29.958Z,25
2017-12-05T13:29:29.456Z,24
2017-12-05T13:30:30.033Z,24
2017-12-05T13:31:56.735Z,24
2017-12-05T13:33:22.484Z,24
2017-12-05T13:34:23.214Z,23
2017-12-05T13:35:22.700Z,21
2017-12-05T13:36:23.295Z,20
2017-12-05T13:37:22.822Z,19
2017-12-05T13:38:23.447Z,18
2017-12-05T13:39:24.314Z,16
2017-12-05T13:40:22.966Z,15
2017-12-05T13:41:24.300Z,13
2017-12-05T13:42:22.954Z,12
2017-12-05T13:43:24.341Z,11
2017-12-05T13:44:23.874Z,11
2017-12-05T13:45:50.519Z,13
2017-12-05T13:47:18.720Z,14
2017-12-05T13:48:18.197Z,16
2017-12-05T13:49:17.714Z,16
2017-12-05T13:50:17.455Z,18
2017-12-05T13:51:18.019Z,19
2017-12-05T13:52:19.163Z,20
2017-12-05T13:53:19.120Z,22
2017-12-05T13:54:17.756Z,23
2017-12-05T13:55:17.322Z,22
2017-12-05T13:56:17.994Z,22
2017-12-05T13:57:17.790Z,20
2017-12-05T13:58:17.484Z,18
2017-12-05T13:59:18.876Z,16
2017-12-05T14:00:17.454Z,14
2017-12-05T14:01:17.939Z,14
2017-12-05T14:02:17.564Z,14
2017-12-05T14:03:17.289Z,13
2017-12-05T14:04:17.930Z,14
2017-12-05T14:05:43.780Z,17
2017-12-05T14:06:44.837Z,17
2017-12-05T14:07:44.931Z,16
2017-12-05T14:08:44.048Z,14
2017-12-05T14:09:44.708Z,13
2017-12-05T14:10:44.479Z,14
2017-12-05T14:11:44.072Z,14
2017-12-05T14:12:44.659Z,15
2017-12-05T14:13:44.157Z,16
2017-12-05T14:14:44.872Z,16
2017-12-05T14:15:44.540Z,16
2017-12-05T14:16:43.942Z,17
2017-12-05T14:18:10.378Z,17
2017-12-05T14:19:12.117Z,16
2017-12-05T14:20:12.266Z,15
2017-12-05T14:21:11.143Z,16
2017-12-05T14:22:11.055Z,16
2017-12-05T14:23:10.779Z,14
2017-12-05T14:24:10.376Z,14
2017-12-05T14:25:10.982Z,13
2017-12-05T14:26:10.612Z,13
2017-12-05T14:27:10.875Z,14
2017-12-05T14:28:10.390Z,14
2017-12-05T14:29:11.087Z,13
2017-12-05T14:30:11.261Z,13
2017-12-05T14:31:10.803Z,13
2017-12-05T14:32:10.994Z,13
2017-12-05T14:33:10.745Z,12
2017-12-05T14:35:04.308Z,12
2017-12-05T14:36:04.340Z,12
2017-12-05T14:37:04.968Z,11
2017-12-05T14:38:04.578Z,11
2017-12-05T14:39:05.195Z,11
2017-12-05T14:40:31.336Z,11
2017-12-05T14:41:32.223Z,10
2017-12-05T14:42:31.820Z,10
2017-12-05T14:43:31.510Z,10
2017-12-05T14:44:32.075Z,10
2017-12-05T14:45:31.678Z,9
2017-12-05T14:46:31.698Z,9
2017-12-05T14:47:32.371Z,8
2017-12-05T14:48:32.101Z,8
2017-12-05T14:49:31.716Z,8
2017-12-05T14:50:31.397Z,7
2017-12-05T14:51:31.900Z,7
2017-12-05T14:52:31.383Z,7
2017-12-05T14:53:31.991Z,6
2017-12-05T14:54:57.688Z,6
2017-12-05T14:55:58.316Z,6
2017-12-05T14:56:58.624Z,5
2017-12-05T14:57:58.354Z,5
2017-12-05T14:58:57.874Z,5
2017-12-05T15:00:24.716Z,4